sensor_id;sensor_type;location;lat;lon;timestamp;temperature;humidity
40638;DHT22;26336;44.696;10.622;2023-05-07T00:02:39;19.80;99.90
40638;DHT22;26336;44.696;10.622;2023-05-07T00:05:43;19.70;99.90
40638;DHT22;26336;44.696;10.622;2023-05-07T00:08:47;19.70;99.90
40638;DHT22;26336;44.696;10.622;2023-05-07T00:11:51;19.70;99.90
40638;DHT22;26336;44.696;10.622;2023-05-07T00:14:54;19.60;99.90
40638;DHT22;26336;44.696;10.622;2023-05-07T00:17:58;19.60;99.90
40638;DHT22;26336;44.696;10.622;2023-05-07T00:21:02;19.60;99.90
40638;DHT22;26336;44.696;10.622;2023-05-07T00:24:06;19.50;99.90
40638;DHT22;26336;44.696;10.622;2023-05-07T00:27:10;19.50;99.90
40638;DHT22;26336;44.696;10.622;2023-05-07T00:30:14;19.50;99.90
40638;DHT22;26336;44.696;10.622;2023-05-07T00:33:18;19.40;99.90
40638;DHT22;26336;44.696;10.622;2023-05-07T00:36:24;19.40;99.90
40638;DHT22;26336;44.696;10.622;2023-05-07T00:39:27;19.30;99.90
40638;DHT22;26336;44.696;10.622;2023-05-07T00:42:31;19.30;99.90
40638;DHT22;26336;44.696;10.622;2023-05-07T00:45:36;19.30;99.90
40638;DHT22;26336;44.696;10.622;2023-05-07T00:48:40;19.20;99.90
40638;DHT22;26336;44.696;10.622;2023-05-07T00:51:44;19.20;99.90
40638;DHT22;26336;44.696;10.622;2023-05-07T00:54:47;19.20;99.90
40638;DHT22;26336;44.696;10.622;2023-05-07T00:57:51;19.10;99.90
40638;DHT22;26336;44.696;10.622;2023-05-07T01:00:55;19.10;99.90
40638;DHT22;26336;44.696;10.622;2023-05-07T01:03:59;19.10;99.90
40638;DHT22;26336;44.696;10.622;2023-05-07T01:07:03;19.00;99.90
40638;DHT22;26336;44.696;10.622;2023-05-07T01:10:08;19.00;99.90
40638;DHT22;26336;44.696;10.622;2023-05-07T01:13:12;19.00;99.90
40638;DHT22;26336;44.696;10.622;2023-05-07T01:16:16;19.00;99.90
40638;DHT22;26336;44.696;10.622;2023-05-07T01:19:19;19.00;99.90
40638;DHT22;26336;44.696;10.622;2023-05-07T01:22:30;19.00;99.90
40638;DHT22;26336;44.696;10.622;2023-05-07T01:25:35;18.90;99.90
40638;DHT22;26336;44.696;10.622;2023-05-07T01:28:39;18.90;99.90
40638;DHT22;26336;44.696;10.622;2023-05-07T01:31:43;18.90;99.90
40638;DHT22;26336;44.696;10.622;2023-05-07T01:34:47;18.90;99.90
40638;DHT22;26336;44.696;10.622;2023-05-07T01:37:51;18.90;99.90
40638;DHT22;26336;44.696;10.622;2023-05-07T01:40:56;18.90;99.90
40638;DHT22;26336;44.696;10.622;2023-05-07T01:44:00;18.90;99.90
40638;DHT22;26336;44.696;10.622;2023-05-07T01:47:04;18.80;99.90
40638;DHT22;26336;44.696;10.622;2023-05-07T01:50:08;18.80;99.90
40638;DHT22;26336;44.696;10.622;2023-05-07T01:53:13;18.80;99.90
40638;DHT22;26336;44.696;10.622;2023-05-07T01:56:18;18.80;99.90
40638;DHT22;26336;44.696;10.622;2023-05-07T01:59:22;18.80;99.90
40638;DHT22;26336;44.696;10.622;2023-05-07T02:02:26;18.70;99.90
40638;DHT22;26336;44.696;10.622;2023-05-07T02:05:32;18.70;99.90
40638;DHT22;26336;44.696;10.622;2023-05-07T02:08:41;18.70;99.90
40638;DHT22;26336;44.696;10.622;2023-05-07T02:11:47;18.70;99.90
40638;DHT22;26336;44.696;10.622;2023-05-07T02:14:50;18.70;99.90
40638;DHT22;26336;44.696;10.622;2023-05-07T02:17:58;18.70;99.90
40638;DHT22;26336;44.696;10.622;2023-05-07T02:21:03;18.60;99.90
40638;DHT22;26336;44.696;10.622;2023-05-07T02:24:07;18.60;99.90
40638;DHT22;26336;44.696;10.622;2023-05-07T02:27:10;18.60;99.90
40638;DHT22;26336;44.696;10.622;2023-05-07T02:30:15;18.60;99.90
40638;DHT22;26336;44.696;10.622;2023-05-07T02:33:19;18.60;99.90
40638;DHT22;26336;44.696;10.622;2023-05-07T02:36:23;18.60;99.90
40638;DHT22;26336;44.696;10.622;2023-05-07T02:39:32;18.60;99.90
40638;DHT22;26336;44.696;10.622;2023-05-07T02:42:36;18.60;99.90
40638;DHT22;26336;44.696;10.622;2023-05-07T02:45:39;18.50;99.90
40638;DHT22;26336;44.696;10.622;2023-05-07T02:48:44;18.50;99.90
40638;DHT22;26336;44.696;10.622;2023-05-07T02:51:48;18.50;99.90
40638;DHT22;26336;44.696;10.622;2023-05-07T02:54:58;18.40;99.90
40638;DHT22;26336;44.696;10.622;2023-05-07T02:58:01;18.40;99.90
40638;DHT22;26336;44.696;10.622;2023-05-07T03:01:06;18.40;99.90
40638;DHT22;26336;44.696;10.622;2023-05-07T03:04:17;18.30;99.90
40638;DHT22;26336;44.696;10.622;2023-05-07T03:07:21;18.30;99.90
40638;DHT22;26336;44.696;10.622;2023-05-07T03:10:24;18.20;99.90
40638;DHT22;26336;44.696;10.622;2023-05-07T03:13:29;18.20;99.90
40638;DHT22;26336;44.696;10.622;2023-05-07T03:16:32;18.20;99.90
40638;DHT22;26336;44.696;10.622;2023-05-07T03:19:36;18.20;99.90
40638;DHT22;26336;44.696;10.622;2023-05-07T03:22:40;18.10;99.90
40638;DHT22;26336;44.696;10.622;2023-05-07T03:25:44;18.10;99.90
40638;DHT22;26336;44.696;10.622;2023-05-07T03:28:48;18.10;99.90
40638;DHT22;26336;44.696;10.622;2023-05-07T03:31:54;18.10;99.90
40638;DHT22;26336;44.696;10.622;2023-05-07T03:34:58;18.10;99.90
40638;DHT22;26336;44.696;10.622;2023-05-07T03:38:01;18.10;99.90
40638;DHT22;26336;44.696;10.622;2023-05-07T03:41:08;18.00;99.90
40638;DHT22;26336;44.696;10.622;2023-05-07T03:44:12;18.00;99.90
40638;DHT22;26336;44.696;10.622;2023-05-07T03:47:16;18.00;99.90
40638;DHT22;26336;44.696;10.622;2023-05-07T03:50:20;18.00;99.90
40638;DHT22;26336;44.696;10.622;2023-05-07T03:53:30;18.00;99.90
40638;DHT22;26336;44.696;10.622;2023-05-07T03:56:34;17.90;99.90
40638;DHT22;26336;44.696;10.622;2023-05-07T03:59:38;17.90;99.90
40638;DHT22;26336;44.696;10.622;2023-05-07T04:02:43;17.90;99.90
40638;DHT22;26336;44.696;10.622;2023-05-07T04:05:47;17.90;99.90
40638;DHT22;26336;44.696;10.622;2023-05-07T04:08:51;17.90;99.90
40638;DHT22;26336;44.696;10.622;2023-05-07T04:11:57;17.80;99.90
40638;DHT22;26336;44.696;10.622;2023-05-07T04:15:01;17.80;99.90
40638;DHT22;26336;44.696;10.622;2023-05-07T04:18:04;17.80;99.90
40638;DHT22;26336;44.696;10.622;2023-05-07T04:21:18;17.70;99.90
40638;DHT22;26336;44.696;10.622;2023-05-07T04:24:23;17.70;99.90
40638;DHT22;26336;44.696;10.622;2023-05-07T04:27:27;17.70;99.90
40638;DHT22;26336;44.696;10.622;2023-05-07T04:30:31;17.70;99.90
40638;DHT22;26336;44.696;10.622;2023-05-07T04:33:34;17.70;99.90
40638;DHT22;26336;44.696;10.622;2023-05-07T04:36:38;17.70;99.90
40638;DHT22;26336;44.696;10.622;2023-05-07T04:39:47;17.70;99.90
40638;DHT22;26336;44.696;10.622;2023-05-07T04:42:51;17.70;99.90
40638;DHT22;26336;44.696;10.622;2023-05-07T04:45:56;17.70;99.90
40638;DHT22;26336;44.696;10.622;2023-05-07T04:49:02;17.70;99.90
40638;DHT22;26336;44.696;10.622;2023-05-07T04:52:07;17.70;99.90
40638;DHT22;26336;44.696;10.622;2023-05-07T04:55:11;17.70;99.90
40638;DHT22;26336;44.696;10.622;2023-05-07T04:58:17;17.70;99.90
40638;DHT22;26336;44.696;10.622;2023-05-07T05:01:23;17.70;99.90
40638;DHT22;26336;44.696;10.622;2023-05-07T05:04:27;17.70;99.90
40638;DHT22;26336;44.696;10.622;2023-05-07T05:07:31;17.70;99.90
40638;DHT22;26336;44.696;10.622;2023-05-07T05:10:35;17.70;99.90
40638;DHT22;26336;44.696;10.622;2023-05-07T05:13:39;17.70;99.90
40638;DHT22;26336;44.696;10.622;2023-05-07T05:16:49;17.60;99.90
40638;DHT22;26336;44.696;10.622;2023-05-07T05:19:52;17.60;99.90
40638;DHT22;26336;44.696;10.622;2023-05-07T05:22:56;17.60;99.90
40638;DHT22;26336;44.696;10.622;2023-05-07T05:26:01;17.60;99.90
40638;DHT22;26336;44.696;10.622;2023-05-07T05:29:08;17.60;99.90
40638;DHT22;26336;44.696;10.622;2023-05-07T05:32:12;17.60;99.90
40638;DHT22;26336;44.696;10.622;2023-05-07T05:35:16;17.60;99.90
40638;DHT22;26336;44.696;10.622;2023-05-07T05:38:20;17.70;99.90
40638;DHT22;26336;44.696;10.622;2023-05-07T05:41:24;17.60;99.90
40638;DHT22;26336;44.696;10.622;2023-05-07T05:44:28;17.70;99.90
40638;DHT22;26336;44.696;10.622;2023-05-07T05:47:32;17.70;99.90
40638;DHT22;26336;44.696;10.622;2023-05-07T05:50:36;17.70;99.90
40638;DHT22;26336;44.696;10.622;2023-05-07T05:53:41;17.80;99.90
40638;DHT22;26336;44.696;10.622;2023-05-07T05:56:45;17.80;99.90
40638;DHT22;26336;44.696;10.622;2023-05-07T05:59:50;17.90;99.90
40638;DHT22;26336;44.696;10.622;2023-05-07T06:02:55;17.90;99.90
40638;DHT22;26336;44.696;10.622;2023-05-07T06:06:01;17.90;99.90
40638;DHT22;26336;44.696;10.622;2023-05-07T06:09:05;18.00;99.90
40638;DHT22;26336;44.696;10.622;2023-05-07T06:12:14;18.10;99.90
40638;DHT22;26336;44.696;10.622;2023-05-07T06:15:19;18.10;99.90
40638;DHT22;26336;44.696;10.622;2023-05-07T06:18:27;18.10;99.90
40638;DHT22;26336;44.696;10.622;2023-05-07T06:21:31;18.20;99.90
40638;DHT22;26336;44.696;10.622;2023-05-07T06:24:35;18.30;99.90
40638;DHT22;26336;44.696;10.622;2023-05-07T06:27:39;18.30;99.90
40638;DHT22;26336;44.696;10.622;2023-05-07T06:30:43;18.30;99.90
40638;DHT22;26336;44.696;10.622;2023-05-07T06:33:47;18.40;99.90
40638;DHT22;26336;44.696;10.622;2023-05-07T06:36:52;18.40;99.90
40638;DHT22;26336;44.696;10.622;2023-05-07T06:40:17;18.40;99.90
40638;DHT22;26336;44.696;10.622;2023-05-07T06:43:23;18.50;99.90
40638;DHT22;26336;44.696;10.622;2023-05-07T06:46:50;18.50;99.90
40638;DHT22;26336;44.696;10.622;2023-05-07T06:49:54;18.50;99.90
40638;DHT22;26336;44.696;10.622;2023-05-07T06:53:01;18.50;99.90
40638;DHT22;26336;44.696;10.622;2023-05-07T06:56:05;18.60;99.90
40638;DHT22;26336;44.696;10.622;2023-05-07T06:59:09;18.50;99.90
40638;DHT22;26336;44.696;10.622;2023-05-07T07:02:16;18.50;99.90
40638;DHT22;26336;44.696;10.622;2023-05-07T07:05:20;18.60;99.90
40638;DHT22;26336;44.696;10.622;2023-05-07T07:08:24;18.60;99.90
40638;DHT22;26336;44.696;10.622;2023-05-07T07:11:29;18.60;99.90
40638;DHT22;26336;44.696;10.622;2023-05-07T07:14:32;18.70;99.90
40638;DHT22;26336;44.696;10.622;2023-05-07T07:17:36;18.70;99.90
40638;DHT22;26336;44.696;10.622;2023-05-07T07:20:40;18.80;99.90
40638;DHT22;26336;44.696;10.622;2023-05-07T07:23:45;18.80;99.90
40638;DHT22;26336;44.696;10.622;2023-05-07T07:26:49;18.80;99.90
40638;DHT22;26336;44.696;10.622;2023-05-07T07:29:54;18.90;99.90
40638;DHT22;26336;44.696;10.622;2023-05-07T07:32:58;18.90;99.90
40638;DHT22;26336;44.696;10.622;2023-05-07T07:36:09;19.00;99.90
40638;DHT22;26336;44.696;10.622;2023-05-07T07:39:12;19.00;99.90
40638;DHT22;26336;44.696;10.622;2023-05-07T07:42:17;19.10;99.90
40638;DHT22;26336;44.696;10.622;2023-05-07T07:45:21;19.10;99.90
40638;DHT22;26336;44.696;10.622;2023-05-07T07:48:28;19.20;99.90
40638;DHT22;26336;44.696;10.622;2023-05-07T07:51:32;19.20;99.90
40638;DHT22;26336;44.696;10.622;2023-05-07T07:54:38;19.20;99.90
40638;DHT22;26336;44.696;10.622;2023-05-07T07:57:53;19.30;99.90
40638;DHT22;26336;44.696;10.622;2023-05-07T08:00:57;19.30;99.90
40638;DHT22;26336;44.696;10.622;2023-05-07T08:04:03;19.30;99.90
40638;DHT22;26336;44.696;10.622;2023-05-07T08:07:11;19.40;99.90
40638;DHT22;26336;44.696;10.622;2023-05-07T08:10:18;19.40;99.90
40638;DHT22;26336;44.696;10.622;2023-05-07T08:13:27;19.40;99.90
40638;DHT22;26336;44.696;10.622;2023-05-07T08:16:31;19.50;99.90
40638;DHT22;26336;44.696;10.622;2023-05-07T08:19:36;19.50;99.90
40638;DHT22;26336;44.696;10.622;2023-05-07T08:22:43;19.50;99.90
40638;DHT22;26336;44.696;10.622;2023-05-07T08:25:54;19.60;99.90
40638;DHT22;26336;44.696;10.622;2023-05-07T08:28:58;19.60;99.90
40638;DHT22;26336;44.696;10.622;2023-05-07T08:32:02;19.60;99.90
40638;DHT22;26336;44.696;10.622;2023-05-07T08:35:07;19.70;99.90
40638;DHT22;26336;44.696;10.622;2023-05-07T08:38:11;19.70;99.90
40638;DHT22;26336;44.696;10.622;2023-05-07T08:41:15;19.80;99.90
40638;DHT22;26336;44.696;10.622;2023-05-07T08:44:25;19.90;99.90
40638;DHT22;26336;44.696;10.622;2023-05-07T08:47:31;19.90;99.90
40638;DHT22;26336;44.696;10.622;2023-05-07T08:50:38;20.10;99.90
40638;DHT22;26336;44.696;10.622;2023-05-07T08:53:43;20.10;99.90
40638;DHT22;26336;44.696;10.622;2023-05-07T08:56:50;20.20;99.90
40638;DHT22;26336;44.696;10.622;2023-05-07T08:59:55;20.30;99.90
40638;DHT22;26336;44.696;10.622;2023-05-07T09:02:59;20.40;99.90
40638;DHT22;26336;44.696;10.622;2023-05-07T09:06:04;20.50;99.90
40638;DHT22;26336;44.696;10.622;2023-05-07T09:09:08;20.60;99.90
40638;DHT22;26336;44.696;10.622;2023-05-07T09:12:13;20.60;99.90
40638;DHT22;26336;44.696;10.622;2023-05-07T09:15:18;20.70;99.90
40638;DHT22;26336;44.696;10.622;2023-05-07T09:18:25;20.80;99.90
40638;DHT22;26336;44.696;10.622;2023-05-07T09:21:33;20.80;99.90
40638;DHT22;26336;44.696;10.622;2023-05-07T09:24:40;20.90;99.90
40638;DHT22;26336;44.696;10.622;2023-05-07T09:27:47;20.90;99.90
40638;DHT22;26336;44.696;10.622;2023-05-07T09:30:51;21.00;99.90
40638;DHT22;26336;44.696;10.622;2023-05-07T09:33:59;21.00;99.90
40638;DHT22;26336;44.696;10.622;2023-05-07T09:37:07;21.10;99.90
40638;DHT22;26336;44.696;10.622;2023-05-07T09:40:21;21.20;99.90
40638;DHT22;26336;44.696;10.622;2023-05-07T09:43:26;21.20;99.90
40638;DHT22;26336;44.696;10.622;2023-05-07T09:46:34;21.30;99.90
40638;DHT22;26336;44.696;10.622;2023-05-07T09:49:44;21.30;99.90
40638;DHT22;26336;44.696;10.622;2023-05-07T09:52:49;21.30;99.90
40638;DHT22;26336;44.696;10.622;2023-05-07T09:55:53;21.30;99.90
40638;DHT22;26336;44.696;10.622;2023-05-07T09:59:01;21.30;99.90
40638;DHT22;26336;44.696;10.622;2023-05-07T10:02:25;21.40;99.90
40638;DHT22;26336;44.696;10.622;2023-05-07T10:05:31;21.60;99.90
40638;DHT22;26336;44.696;10.622;2023-05-07T10:08:37;21.60;99.90
40638;DHT22;26336;44.696;10.622;2023-05-07T10:11:42;21.90;99.90
40638;DHT22;26336;44.696;10.622;2023-05-07T10:14:47;21.90;99.90
40638;DHT22;26336;44.696;10.622;2023-05-07T10:17:52;22.10;99.80
40638;DHT22;26336;44.696;10.622;2023-05-07T10:20:58;22.20;99.70
40638;DHT22;26336;44.696;10.622;2023-05-07T10:24:13;22.30;99.80
40638;DHT22;26336;44.696;10.622;2023-05-07T10:27:21;22.30;99.80
40638;DHT22;26336;44.696;10.622;2023-05-07T10:33:54;22.30;99.80
40638;DHT22;26336;44.696;10.622;2023-05-07T10:37:00;22.20;99.50
40638;DHT22;26336;44.696;10.622;2023-05-07T10:40:06;22.30;99.50
40638;DHT22;26336;44.696;10.622;2023-05-07T10:43:11;22.40;98.70
40638;DHT22;26336;44.696;10.622;2023-05-07T10:46:20;22.60;98.90
40638;DHT22;26336;44.696;10.622;2023-05-07T10:59:32;22.50;99.50
40638;DHT22;26336;44.696;10.622;2023-05-07T11:06:25;22.50;99.90
40638;DHT22;26336;44.696;10.622;2023-05-07T11:13:09;22.50;99.20
40638;DHT22;26336;44.696;10.622;2023-05-07T11:16:23;22.80;97.10
40638;DHT22;26336;44.696;10.622;2023-05-07T11:19:57;23.00;97.40
40638;DHT22;26336;44.696;10.622;2023-05-07T11:27:11;23.50;97.10
40638;DHT22;26336;44.696;10.622;2023-05-07T11:30:18;23.60;96.40
40638;DHT22;26336;44.696;10.622;2023-05-07T11:33:23;23.50;96.50
40638;DHT22;26336;44.696;10.622;2023-05-07T11:36:31;23.30;97.40
40638;DHT22;26336;44.696;10.622;2023-05-07T11:39:39;23.30;97.50
40638;DHT22;26336;44.696;10.622;2023-05-07T11:42:43;23.20;97.20
40638;DHT22;26336;44.696;10.622;2023-05-07T11:45:47;23.20;97.10
40638;DHT22;26336;44.696;10.622;2023-05-07T11:48:51;23.20;96.90
40638;DHT22;26336;44.696;10.622;2023-05-07T11:51:55;23.20;97.40
40638;DHT22;26336;44.696;10.622;2023-05-07T11:55:02;23.20;96.60
40638;DHT22;26336;44.696;10.622;2023-05-07T11:58:10;23.30;96.10
40638;DHT22;26336;44.696;10.622;2023-05-07T12:01:14;23.50;96.30
40638;DHT22;26336;44.696;10.622;2023-05-07T12:04:19;23.40;95.10
40638;DHT22;26336;44.696;10.622;2023-05-07T12:07:26;23.50;94.90
40638;DHT22;26336;44.696;10.622;2023-05-07T12:10:30;23.50;95.60
40638;DHT22;26336;44.696;10.622;2023-05-07T12:13:34;23.50;96.00
40638;DHT22;26336;44.696;10.622;2023-05-07T12:16:39;23.50;95.70
40638;DHT22;26336;44.696;10.622;2023-05-07T12:19:43;23.50;95.30
40638;DHT22;26336;44.696;10.622;2023-05-07T12:22:49;23.50;94.10
40638;DHT22;26336;44.696;10.622;2023-05-07T12:25:53;23.70;93.80
40638;DHT22;26336;44.696;10.622;2023-05-07T12:28:57;23.90;93.50
40638;DHT22;26336;44.696;10.622;2023-05-07T12:32:02;23.80;93.70
40638;DHT22;26336;44.696;10.622;2023-05-07T12:35:06;23.70;93.70
40638;DHT22;26336;44.696;10.622;2023-05-07T12:38:11;23.70;94.50
40638;DHT22;26336;44.696;10.622;2023-05-07T12:41:15;23.60;94.70
40638;DHT22;26336;44.696;10.622;2023-05-07T12:44:21;23.50;94.60
40638;DHT22;26336;44.696;10.622;2023-05-07T12:47:26;23.40;94.80
40638;DHT22;26336;44.696;10.622;2023-05-07T12:50:33;23.30;95.80
40638;DHT22;26336;44.696;10.622;2023-05-07T12:53:40;23.40;95.60
40638;DHT22;26336;44.696;10.622;2023-05-07T12:56:47;23.50;95.20
40638;DHT22;26336;44.696;10.622;2023-05-07T12:59:51;23.60;94.70
40638;DHT22;26336;44.696;10.622;2023-05-07T13:03:01;23.70;94.80
40638;DHT22;26336;44.696;10.622;2023-05-07T13:06:06;23.80;94.80
40638;DHT22;26336;44.696;10.622;2023-05-07T13:09:12;23.90;94.40
40638;DHT22;26336;44.696;10.622;2023-05-07T13:12:16;23.90;94.10
40638;DHT22;26336;44.696;10.622;2023-05-07T13:15:20;23.90;93.50
40638;DHT22;26336;44.696;10.622;2023-05-07T13:18:25;23.90;94.10
40638;DHT22;26336;44.696;10.622;2023-05-07T13:21:30;23.90;93.70
40638;DHT22;26336;44.696;10.622;2023-05-07T13:24:37;24.00;93.70
40638;DHT22;26336;44.696;10.622;2023-05-07T13:27:41;24.00;93.30
40638;DHT22;26336;44.696;10.622;2023-05-07T13:30:46;24.00;93.20
40638;DHT22;26336;44.696;10.622;2023-05-07T13:33:50;23.90;93.70
40638;DHT22;26336;44.696;10.622;2023-05-07T13:36:54;23.90;94.20
40638;DHT22;26336;44.696;10.622;2023-05-07T13:39:59;23.80;94.30
40638;DHT22;26336;44.696;10.622;2023-05-07T13:43:03;23.80;94.40
40638;DHT22;26336;44.696;10.622;2023-05-07T13:46:07;23.80;94.00
40638;DHT22;26336;44.696;10.622;2023-05-07T13:49:11;23.80;94.20
40638;DHT22;26336;44.696;10.622;2023-05-07T13:52:16;24.00;93.50
40638;DHT22;26336;44.696;10.622;2023-05-07T13:55:20;24.00;93.20
40638;DHT22;26336;44.696;10.622;2023-05-07T13:58:27;24.00;93.20
40638;DHT22;26336;44.696;10.622;2023-05-07T14:01:30;23.90;93.60
40638;DHT22;26336;44.696;10.622;2023-05-07T14:04:34;23.90;94.10
40638;DHT22;26336;44.696;10.622;2023-05-07T14:07:38;23.90;94.50
40638;DHT22;26336;44.696;10.622;2023-05-07T14:10:42;23.80;93.80
40638;DHT22;26336;44.696;10.622;2023-05-07T14:13:46;23.80;94.20
40638;DHT22;26336;44.696;10.622;2023-05-07T14:16:50;23.80;94.20
40638;DHT22;26336;44.696;10.622;2023-05-07T14:19:54;23.80;94.00
40638;DHT22;26336;44.696;10.622;2023-05-07T14:22:58;23.90;93.40
40638;DHT22;26336;44.696;10.622;2023-05-07T14:26:05;23.90;93.90
40638;DHT22;26336;44.696;10.622;2023-05-07T14:29:12;24.00;94.00
40638;DHT22;26336;44.696;10.622;2023-05-07T14:32:17;24.00;94.60
40638;DHT22;26336;44.696;10.622;2023-05-07T14:35:24;23.90;94.20
40638;DHT22;26336;44.696;10.622;2023-05-07T14:38:32;24.00;93.70
40638;DHT22;26336;44.696;10.622;2023-05-07T14:41:36;24.00;93.70
40638;DHT22;26336;44.696;10.622;2023-05-07T14:44:49;24.00;94.40
40638;DHT22;26336;44.696;10.622;2023-05-07T14:47:53;23.90;94.10
40638;DHT22;26336;44.696;10.622;2023-05-07T14:50:57;24.00;93.90
40638;DHT22;26336;44.696;10.622;2023-05-07T14:54:03;24.10;93.80
40638;DHT22;26336;44.696;10.622;2023-05-07T14:57:10;24.20;93.80
40638;DHT22;26336;44.696;10.622;2023-05-07T15:00:16;24.20;93.60
40638;DHT22;26336;44.696;10.622;2023-05-07T15:03:20;24.20;93.80
40638;DHT22;26336;44.696;10.622;2023-05-07T15:06:31;24.10;93.40
40638;DHT22;26336;44.696;10.622;2023-05-07T15:09:37;24.10;93.50
40638;DHT22;26336;44.696;10.622;2023-05-07T15:12:41;24.00;94.00
40638;DHT22;26336;44.696;10.622;2023-05-07T15:15:46;24.00;94.20
40638;DHT22;26336;44.696;10.622;2023-05-07T15:18:49;24.00;93.80
40638;DHT22;26336;44.696;10.622;2023-05-07T15:21:53;24.10;93.70
40638;DHT22;26336;44.696;10.622;2023-05-07T15:24:57;24.00;93.70
40638;DHT22;26336;44.696;10.622;2023-05-07T15:28:02;24.00;93.60
40638;DHT22;26336;44.696;10.622;2023-05-07T15:31:06;24.00;94.10
40638;DHT22;26336;44.696;10.622;2023-05-07T15:34:10;23.90;94.50
40638;DHT22;26336;44.696;10.622;2023-05-07T15:37:14;24.00;93.60
40638;DHT22;26336;44.696;10.622;2023-05-07T15:40:18;24.10;94.10
40638;DHT22;26336;44.696;10.622;2023-05-07T15:43:22;24.10;93.80
40638;DHT22;26336;44.696;10.622;2023-05-07T15:46:26;24.10;93.30
40638;DHT22;26336;44.696;10.622;2023-05-07T15:49:30;24.10;93.00
40638;DHT22;26336;44.696;10.622;2023-05-07T15:52:34;24.10;93.10
40638;DHT22;26336;44.696;10.622;2023-05-07T15:55:39;24.10;93.60
40638;DHT22;26336;44.696;10.622;2023-05-07T15:58:44;24.10;93.80
40638;DHT22;26336;44.696;10.622;2023-05-07T16:01:48;24.20;93.80
40638;DHT22;26336;44.696;10.622;2023-05-07T16:04:52;24.10;94.10
40638;DHT22;26336;44.696;10.622;2023-05-07T16:07:56;24.20;94.40
40638;DHT22;26336;44.696;10.622;2023-05-07T16:11:02;24.30;93.90
40638;DHT22;26336;44.696;10.622;2023-05-07T16:14:06;24.30;94.60
40638;DHT22;26336;44.696;10.622;2023-05-07T16:17:10;24.30;94.10
40638;DHT22;26336;44.696;10.622;2023-05-07T16:20:14;24.30;93.80
40638;DHT22;26336;44.696;10.622;2023-05-07T16:23:22;24.20;94.00
40638;DHT22;26336;44.696;10.622;2023-05-07T16:26:26;24.30;93.90
40638;DHT22;26336;44.696;10.622;2023-05-07T16:29:30;24.30;94.10
40638;DHT22;26336;44.696;10.622;2023-05-07T16:32:34;24.20;94.30
40638;DHT22;26336;44.696;10.622;2023-05-07T16:35:38;24.10;94.30
40638;DHT22;26336;44.696;10.622;2023-05-07T16:38:45;24.10;94.50
40638;DHT22;26336;44.696;10.622;2023-05-07T16:41:49;24.10;94.40
40638;DHT22;26336;44.696;10.622;2023-05-07T16:44:53;24.10;94.00
40638;DHT22;26336;44.696;10.622;2023-05-07T16:47:57;24.10;94.10
40638;DHT22;26336;44.696;10.622;2023-05-07T16:51:01;24.10;93.90
40638;DHT22;26336;44.696;10.622;2023-05-07T16:54:05;24.10;93.60
40638;DHT22;26336;44.696;10.622;2023-05-07T16:57:08;24.10;93.60
40638;DHT22;26336;44.696;10.622;2023-05-07T17:00:13;24.10;94.00
40638;DHT22;26336;44.696;10.622;2023-05-07T17:03:17;24.10;93.80
40638;DHT22;26336;44.696;10.622;2023-05-07T17:06:21;24.10;93.60
40638;DHT22;26336;44.696;10.622;2023-05-07T17:09:25;24.10;93.60
40638;DHT22;26336;44.696;10.622;2023-05-07T17:12:29;24.10;93.70
40638;DHT22;26336;44.696;10.622;2023-05-07T17:15:34;24.10;93.80
40638;DHT22;26336;44.696;10.622;2023-05-07T17:18:39;24.00;93.90
40638;DHT22;26336;44.696;10.622;2023-05-07T17:21:43;23.90;93.90
40638;DHT22;26336;44.696;10.622;2023-05-07T17:24:47;23.90;94.00
40638;DHT22;26336;44.696;10.622;2023-05-07T17:27:51;23.90;93.80
40638;DHT22;26336;44.696;10.622;2023-05-07T17:30:55;23.90;93.90
40638;DHT22;26336;44.696;10.622;2023-05-07T17:33:59;23.90;93.90
40638;DHT22;26336;44.696;10.622;2023-05-07T17:37:03;23.90;94.10
40638;DHT22;26336;44.696;10.622;2023-05-07T17:40:07;23.80;94.50
40638;DHT22;26336;44.696;10.622;2023-05-07T17:43:11;23.80;94.50
40638;DHT22;26336;44.696;10.622;2023-05-07T17:46:15;23.70;94.60
40638;DHT22;26336;44.696;10.622;2023-05-07T17:49:19;23.70;94.70
40638;DHT22;26336;44.696;10.622;2023-05-07T17:52:23;23.70;94.80
40638;DHT22;26336;44.696;10.622;2023-05-07T17:55:27;23.50;95.10
40638;DHT22;26336;44.696;10.622;2023-05-07T17:58:31;23.40;95.50
40638;DHT22;26336;44.696;10.622;2023-05-07T18:01:35;23.30;95.70
40638;DHT22;26336;44.696;10.622;2023-05-07T18:04:39;23.30;95.90
40638;DHT22;26336;44.696;10.622;2023-05-07T18:07:43;23.20;96.50
40638;DHT22;26336;44.696;10.622;2023-05-07T18:10:47;23.20;96.50
40638;DHT22;26336;44.696;10.622;2023-05-07T18:13:51;23.20;96.50
40638;DHT22;26336;44.696;10.622;2023-05-07T18:16:54;23.10;96.90
40638;DHT22;26336;44.696;10.622;2023-05-07T18:19:58;23.00;96.90
40638;DHT22;26336;44.696;10.622;2023-05-07T18:23:02;23.00;97.10
40638;DHT22;26336;44.696;10.622;2023-05-07T18:26:07;22.90;97.20
40638;DHT22;26336;44.696;10.622;2023-05-07T18:29:11;22.90;97.30
40638;DHT22;26336;44.696;10.622;2023-05-07T18:32:14;22.90;97.50
40638;DHT22;26336;44.696;10.622;2023-05-07T18:35:19;22.90;97.70
40638;DHT22;26336;44.696;10.622;2023-05-07T18:38:23;22.80;97.80
40638;DHT22;26336;44.696;10.622;2023-05-07T18:41:27;22.80;97.80
40638;DHT22;26336;44.696;10.622;2023-05-07T18:44:30;22.80;97.90
40638;DHT22;26336;44.696;10.622;2023-05-07T18:47:35;22.80;97.90
40638;DHT22;26336;44.696;10.622;2023-05-07T18:50:42;22.80;98.20
40638;DHT22;26336;44.696;10.622;2023-05-07T18:53:46;22.70;98.60
40638;DHT22;26336;44.696;10.622;2023-05-07T18:56:53;22.70;98.70
40638;DHT22;26336;44.696;10.622;2023-05-07T18:59:57;22.70;98.60
40638;DHT22;26336;44.696;10.622;2023-05-07T19:03:01;22.60;98.90
40638;DHT22;26336;44.696;10.622;2023-05-07T19:06:07;22.50;99.50
40638;DHT22;26336;44.696;10.622;2023-05-07T19:09:12;22.50;99.70
40638;DHT22;26336;44.696;10.622;2023-05-07T19:12:17;22.40;99.60
40638;DHT22;26336;44.696;10.622;2023-05-07T19:15:21;22.40;99.90
40638;DHT22;26336;44.696;10.622;2023-05-07T19:18:27;22.40;99.90
40638;DHT22;26336;44.696;10.622;2023-05-07T19:21:32;22.40;99.90
40638;DHT22;26336;44.696;10.622;2023-05-07T19:24:36;22.40;99.90
40638;DHT22;26336;44.696;10.622;2023-05-07T19:27:40;22.40;99.90
40638;DHT22;26336;44.696;10.622;2023-05-07T19:30:44;22.40;99.90
40638;DHT22;26336;44.696;10.622;2023-05-07T19:33:48;22.30;99.90
40638;DHT22;26336;44.696;10.622;2023-05-07T19:36:52;22.30;99.90